메인 페이지
METAR-TAF:

METAR-TAF

공항 :

코퍼스크리스티 / Kingsville, 텍사스, 미국

위도: 27-46-23N, 경도: 097-30-46W, 고도: 13m

현재 날씨관측

예보는 35분 전, 04:51시(UTC)에 발표되었습니다.
남동16kt, 순간 최대 풍속 22kt
온도 25°C
습도 94%
기압 1012 hPa
시정: 11.3km
고도 800ft 상공 구름 보통
고도 1400ft 상공 흐림

METAR: KCRP 180451Z 14016G22KT 7SM SCT008 OVC014 25/24 A2989 RMK AO2 SLP120 T02500239

시각: 00:26 (05:26 UTC)

예보

예보는 4 시간 25분 전, 01:01시(UTC)에 발표되었습니다.
예보 대상 시간: 18일 01시부터 18일 24시까지 (UTC)
동남동12kt
시정: 6.4km
고도 1000ft 상공 구름 많음
고도 2000ft 상공 흐림
박무
일시적
18일 02시부터 18일 06시까지 (UTC)
고도 800ft 상공 구름 많음
18일 0600시부터 (UTC)
남동11kt
시정: 9.7km
고도 800ft 상공 구름 많음
박무
18일 1500시부터 (UTC)
남동14kt
시정: 10km
고도 1500ft 상공 구름 많음
18일 1800시부터 (UTC)
남동16kt, 순간 최대 풍속 22kt
시정: 10km
고도 2500ft 상공 구름 보통
고도 5000ft 상공 구름 많음

TAF: KCRP 180101Z 1801/1824 11012KT 4SM BR BKN010 OVC020 TEMPO 1802/1806 BKN008 FM180600 14011KT 6SM BR BKN008 FM181500 14014KT P6SM BKN015 FM181800 14016G22KT P6SM SCT025 BKN050

4,000개 이상의 공항 관측 자료 및 예보 (METAR 및 TAF 보고).

지도상에서 검색 가능한 기상관측소가 노란 점과 빨간 점으로 표시되어 있습니다.

기상관측소 명을 보려면 표시 위로 마우스를 이동하세요.

날씨 관측과 예보를 보려면 클릭하세요.

지도 변경 : 확대하려면 엑스 표시가 있는 녹색 버튼, 축소하려면 빼기 표시가 있는 녹색 버튼, 다음 페이지의 지도를 보려면 녹색 화살표를 클릭하세요.


METAR-TAF: